sensor_id;sensor_type;location;lat;lon;timestamp;noise_LAeq;noise_LA_min;noise_LA_max;noise_LA01;noise_LA95
18377;Laerm;9315;52.624;13.544;2023-08-21T00:01:53;46.49;33.76;62.04;;
18377;Laerm;9315;52.624;13.544;2023-08-21T00:04:20;38.19;33.47;50.35;;
18377;Laerm;9315;52.624;13.544;2023-08-21T00:06:47;55.31;33.92;72.82;;
18377;Laerm;9315;52.624;13.544;2023-08-21T00:09:14;57.10;33.95;73.44;;
18377;Laerm;9315;52.624;13.544;2023-08-21T00:11:42;36.08;32.73;40.05;;
18377;Laerm;9315;52.624;13.544;2023-08-21T00:14:09;37.25;33.85;42.12;;
18377;Laerm;9315;52.624;13.544;2023-08-21T00:16:36;37.06;32.69;42.71;;
18377;Laerm;9315;52.624;13.544;2023-08-21T00:19:03;37.46;33.73;43.67;;
18377;Laerm;9315;52.624;13.544;2023-08-21T00:21:30;52.44;32.75;71.85;;
18377;Laerm;9315;52.624;13.544;2023-08-21T00:23:57;55.12;34.80;68.93;;
18377;Laerm;9315;52.624;13.544;2023-08-21T00:26:25;48.91;33.69;63.89;;
18377;Laerm;9315;52.624;13.544;2023-08-21T00:28:52;36.38;32.44;44.90;;
18377;Laerm;9315;52.624;13.544;2023-08-21T00:31:19;36.37;32.59;43.25;;
18377;Laerm;9315;52.624;13.544;2023-08-21T00:33:46;53.69;33.68;68.83;;
18377;Laerm;9315;52.624;13.544;2023-08-21T00:36:13;39.29;32.88;57.68;;
18377;Laerm;9315;52.624;13.544;2023-08-21T00:38:40;57.32;33.21;76.82;;
18377;Laerm;9315;52.624;13.544;2023-08-21T00:41:08;57.55;34.15;73.99;;
18377;Laerm;9315;52.624;13.544;2023-08-21T00:43:35;38.78;33.06;48.38;;
18377;Laerm;9315;52.624;13.544;2023-08-21T00:46:02;55.95;34.33;77.35;;
18377;Laerm;9315;52.624;13.544;2023-08-21T00:48:29;54.05;34.52;74.29;;
18377;Laerm;9315;52.624;13.544;2023-08-21T00:50:57;52.96;33.62;69.77;;
18377;Laerm;9315;52.624;13.544;2023-08-21T00:53:25;51.57;34.68;69.72;;
18377;Laerm;9315;52.624;13.544;2023-08-21T00:55:52;56.17;37.50;72.32;;
18377;Laerm;9315;52.624;13.544;2023-08-21T00:58:19;58.73;34.14;73.63;;
18377;Laerm;9315;52.624;13.544;2023-08-21T01:00:49;51.60;33.09;67.68;;
18377;Laerm;9315;52.624;13.544;2023-08-21T01:03:19;55.99;34.89;71.45;;
18377;Laerm;9315;52.624;13.544;2023-08-21T01:05:46;56.59;35.68;74.28;;
18377;Laerm;9315;52.624;13.544;2023-08-21T01:08:53;38.40;33.77;46.21;;
18377;Laerm;9315;52.624;13.544;2023-08-21T01:12:06;57.21;34.64;76.09;;
18377;Laerm;9315;52.624;13.544;2023-08-21T01:15:00;58.07;34.25;75.33;;
18377;Laerm;9315;52.624;13.544;2023-08-21T01:17:30;49.40;35.50;69.29;;
18377;Laerm;9315;52.624;13.544;2023-08-21T01:20:01;52.85;34.40;71.55;;
18377;Laerm;9315;52.624;13.544;2023-08-21T01:22:42;57.10;36.64;72.70;;
18377;Laerm;9315;52.624;13.544;2023-08-21T01:25:17;61.12;35.97;77.65;;
18377;Laerm;9315;52.624;13.544;2023-08-21T01:27:48;63.09;37.06;79.31;;
18377;Laerm;9315;52.624;13.544;2023-08-21T01:30:16;49.20;35.47;67.25;;
18377;Laerm;9315;52.624;13.544;2023-08-21T01:33:09;58.27;35.10;72.72;;
18377;Laerm;9315;52.624;13.544;2023-08-21T01:35:38;57.82;37.05;76.95;;
18377;Laerm;9315;52.624;13.544;2023-08-21T01:38:05;39.54;35.68;44.54;;
18377;Laerm;9315;52.624;13.544;2023-08-21T01:40:33;55.25;36.53;73.13;;
18377;Laerm;9315;52.624;13.544;2023-08-21T01:43:00;67.07;37.21;86.36;;
18377;Laerm;9315;52.624;13.544;2023-08-21T01:45:27;53.92;35.40;73.49;;
18377;Laerm;9315;52.624;13.544;2023-08-21T01:47:55;57.37;36.84;72.93;;
18377;Laerm;9315;52.624;13.544;2023-08-21T01:50:22;52.96;36.75;67.33;;
18377;Laerm;9315;52.624;13.544;2023-08-21T01:52:49;54.10;34.94;70.08;;
18377;Laerm;9315;52.624;13.544;2023-08-21T01:55:16;57.88;35.93;73.04;;
18377;Laerm;9315;52.624;13.544;2023-08-21T01:57:43;59.91;37.53;76.93;;
18377;Laerm;9315;52.624;13.544;2023-08-21T02:00:12;58.31;36.78;75.22;;
18377;Laerm;9315;52.624;13.544;2023-08-21T02:02:39;58.09;37.12;72.70;;
18377;Laerm;9315;52.624;13.544;2023-08-21T02:05:07;59.96;36.68;72.08;;
18377;Laerm;9315;52.624;13.544;2023-08-21T02:07:34;58.73;35.90;75.24;;
18377;Laerm;9315;52.624;13.544;2023-08-21T02:10:01;58.52;37.29;72.85;;
18377;Laerm;9315;52.624;13.544;2023-08-21T02:12:28;52.85;36.18;67.29;;
18377;Laerm;9315;52.624;13.544;2023-08-21T02:14:55;67.61;37.31;86.07;;
18377;Laerm;9315;52.624;13.544;2023-08-21T02:17:26;65.77;41.39;81.15;;
18377;Laerm;9315;52.624;13.544;2023-08-21T02:19:53;59.45;35.75;74.35;;
18377;Laerm;9315;52.624;13.544;2023-08-21T02:22:20;60.49;36.81;76.90;;
18377;Laerm;9315;52.624;13.544;2023-08-21T02:24:48;59.38;38.34;73.22;;
18377;Laerm;9315;52.624;13.544;2023-08-21T02:27:15;62.14;37.72;78.03;;
18377;Laerm;9315;52.624;13.544;2023-08-21T02:29:42;61.23;38.12;77.32;;
18377;Laerm;9315;52.624;13.544;2023-08-21T02:32:09;62.36;37.13;75.69;;
18377;Laerm;9315;52.624;13.544;2023-08-21T02:34:36;64.14;38.23;77.39;;
18377;Laerm;9315;52.624;13.544;2023-08-21T02:37:03;62.32;39.04;77.31;;
18377;Laerm;9315;52.624;13.544;2023-08-21T02:39:31;62.57;38.00;75.71;;
18377;Laerm;9315;52.624;13.544;2023-08-21T02:41:59;64.42;40.19;75.91;;
18377;Laerm;9315;52.624;13.544;2023-08-21T02:44:26;61.96;38.51;76.51;;
18377;Laerm;9315;52.624;13.544;2023-08-21T02:46:53;63.01;38.11;79.59;;
18377;Laerm;9315;52.624;13.544;2023-08-21T02:49:20;61.78;38.95;76.82;;
18377;Laerm;9315;52.624;13.544;2023-08-21T02:51:47;62.19;38.66;78.05;;
18377;Laerm;9315;52.624;13.544;2023-08-21T02:54:14;66.40;40.68;82.71;;
18377;Laerm;9315;52.624;13.544;2023-08-21T02:56:41;63.92;41.76;77.09;;
18377;Laerm;9315;52.624;13.544;2023-08-21T02:59:09;63.63;40.34;75.58;;
18377;Laerm;9315;52.624;13.544;2023-08-21T03:01:36;64.68;40.37;75.68;;
18377;Laerm;9315;52.624;13.544;2023-08-21T03:04:03;63.80;42.41;73.87;;
18377;Laerm;9315;52.624;13.544;2023-08-21T03:06:30;63.34;40.54;71.82;;
18377;Laerm;9315;52.624;13.544;2023-08-21T03:08:57;63.70;41.38;75.80;;
18377;Laerm;9315;52.624;13.544;2023-08-21T03:11:24;64.04;42.93;77.20;;
18377;Laerm;9315;52.624;13.544;2023-08-21T03:13:52;66.80;42.79;77.26;;
18377;Laerm;9315;52.624;13.544;2023-08-21T03:16:19;65.51;43.10;83.55;;
18377;Laerm;9315;52.624;13.544;2023-08-21T03:18:58;66.03;43.59;76.15;;
18377;Laerm;9315;52.624;13.544;2023-08-21T03:21:27;64.55;43.59;73.83;;
18377;Laerm;9315;52.624;13.544;2023-08-21T03:23:58;65.04;44.18;74.29;;
18377;Laerm;9315;52.624;13.544;2023-08-21T03:26:30;65.93;45.34;76.72;;
18377;Laerm;9315;52.624;13.544;2023-08-21T03:28:57;65.43;46.21;81.30;;
18377;Laerm;9315;52.624;13.544;2023-08-21T03:31:24;66.20;46.30;76.21;;
18377;Laerm;9315;52.624;13.544;2023-08-21T03:33:51;66.70;46.62;76.04;;
18377;Laerm;9315;52.624;13.544;2023-08-21T03:36:19;65.56;47.18;76.09;;
18377;Laerm;9315;52.624;13.544;2023-08-21T03:38:46;67.71;46.77;77.69;;
18377;Laerm;9315;52.624;13.544;2023-08-21T03:41:13;70.13;47.03;82.69;;
18377;Laerm;9315;52.624;13.544;2023-08-21T03:43:40;65.16;48.70;73.77;;
18377;Laerm;9315;52.624;13.544;2023-08-21T03:46:07;67.67;46.63;78.16;;
18377;Laerm;9315;52.624;13.544;2023-08-21T03:48:35;65.22;47.93;76.92;;
18377;Laerm;9315;52.624;13.544;2023-08-21T03:51:02;65.44;46.24;76.92;;
18377;Laerm;9315;52.624;13.544;2023-08-21T03:53:29;67.16;46.36;78.60;;
18377;Laerm;9315;52.624;13.544;2023-08-21T03:55:59;70.17;49.67;84.16;;
18377;Laerm;9315;52.624;13.544;2023-08-21T03:58:26;68.26;48.49;79.86;;
18377;Laerm;9315;52.624;13.544;2023-08-21T04:00:54;66.69;47.73;77.24;;
18377;Laerm;9315;52.624;13.544;2023-08-21T04:03:21;64.25;45.29;76.45;;
18377;Laerm;9315;52.624;13.544;2023-08-21T04:05:48;69.11;47.30;82.52;;
18377;Laerm;9315;52.624;13.544;2023-08-21T04:08:15;67.79;47.61;81.79;;
18377;Laerm;9315;52.624;13.544;2023-08-21T04:10:43;67.92;49.30;78.34;;
18377;Laerm;9315;52.624;13.544;2023-08-21T04:13:10;68.55;49.00;78.91;;
18377;Laerm;9315;52.624;13.544;2023-08-21T04:15:44;69.79;48.90;81.52;;
18377;Laerm;9315;52.624;13.544;2023-08-21T04:18:12;70.73;49.05;85.43;;
18377;Laerm;9315;52.624;13.544;2023-08-21T04:20:44;67.73;48.92;78.62;;
18377;Laerm;9315;52.624;13.544;2023-08-21T04:23:11;67.29;49.75;76.34;;
18377;Laerm;9315;52.624;13.544;2023-08-21T04:25:42;71.53;50.31;88.63;;
18377;Laerm;9315;52.624;13.544;2023-08-21T04:28:10;68.20;47.70;80.27;;
18377;Laerm;9315;52.624;13.544;2023-08-21T04:30:40;66.31;47.00;78.66;;
18377;Laerm;9315;52.624;13.544;2023-08-21T04:33:07;67.20;46.69;77.48;;
18377;Laerm;9315;52.624;13.544;2023-08-21T04:35:38;68.99;47.58;78.29;;
18377;Laerm;9315;52.624;13.544;2023-08-21T04:38:06;68.60;45.82;77.31;;
18377;Laerm;9315;52.624;13.544;2023-08-21T04:40:34;68.25;48.22;82.59;;
18377;Laerm;9315;52.624;13.544;2023-08-21T04:43:01;69.74;43.75;84.40;;
18377;Laerm;9315;52.624;13.544;2023-08-21T04:45:28;69.67;50.42;78.56;;
18377;Laerm;9315;52.624;13.544;2023-08-21T04:47:55;69.32;52.19;81.98;;
18377;Laerm;9315;52.624;13.544;2023-08-21T04:50:24;69.59;46.98;86.43;;
18377;Laerm;9315;52.624;13.544;2023-08-21T04:52:51;69.75;48.75;81.84;;
18377;Laerm;9315;52.624;13.544;2023-08-21T04:55:18;67.55;48.13;76.65;;
18377;Laerm;9315;52.624;13.544;2023-08-21T04:57:46;70.47;45.13;88.05;;
18377;Laerm;9315;52.624;13.544;2023-08-21T05:00:16;69.61;45.57;78.42;;
18377;Laerm;9315;52.624;13.544;2023-08-21T05:02:43;68.20;45.02;80.92;;
18377;Laerm;9315;52.624;13.544;2023-08-21T05:05:10;66.71;48.33;76.65;;
18377;Laerm;9315;52.624;13.544;2023-08-21T05:07:38;68.70;45.78;79.30;;
18377;Laerm;9315;52.624;13.544;2023-08-21T05:10:06;68.05;45.08;76.55;;
18377;Laerm;9315;52.624;13.544;2023-08-21T05:12:33;68.62;45.16;79.49;;
18377;Laerm;9315;52.624;13.544;2023-08-21T05:15:00;68.87;46.89;76.83;;
18377;Laerm;9315;52.624;13.544;2023-08-21T05:17:27;67.80;44.41;86.35;;
18377;Laerm;9315;52.624;13.544;2023-08-21T05:19:55;69.00;46.84;79.33;;
18377;Laerm;9315;52.624;13.544;2023-08-21T05:22:22;70.80;46.21;85.18;;
18377;Laerm;9315;52.624;13.544;2023-08-21T05:24:52;68.28;45.92;79.84;;
18377;Laerm;9315;52.624;13.544;2023-08-21T05:27:19;64.72;42.01;76.55;;
18377;Laerm;9315;52.624;13.544;2023-08-21T05:29:46;67.18;41.30;77.49;;
18377;Laerm;9315;52.624;13.544;2023-08-21T05:32:14;68.36;45.37;77.06;;
18377;Laerm;9315;52.624;13.544;2023-08-21T05:34:41;67.45;42.04;76.71;;
18377;Laerm;9315;52.624;13.544;2023-08-21T05:37:08;68.13;42.35;78.26;;
18377;Laerm;9315;52.624;13.544;2023-08-21T05:39:35;68.07;41.24;77.83;;
18377;Laerm;9315;52.624;13.544;2023-08-21T05:42:02;68.63;40.76;76.48;;
18377;Laerm;9315;52.624;13.544;2023-08-21T05:44:29;69.44;41.81;85.34;;
18377;Laerm;9315;52.624;13.544;2023-08-21T05:46:56;68.68;44.58;78.16;;
18377;Laerm;9315;52.624;13.544;2023-08-21T05:49:24;67.94;45.66;76.91;;
18377;Laerm;9315;52.624;13.544;2023-08-21T05:51:51;69.30;47.18;79.40;;
18377;Laerm;9315;52.624;13.544;2023-08-21T05:54:18;68.81;46.51;79.98;;
18377;Laerm;9315;52.624;13.544;2023-08-21T05:56:45;67.07;44.45;77.21;;
18377;Laerm;9315;52.624;13.544;2023-08-21T05:59:12;67.54;39.11;78.00;;
18377;Laerm;9315;52.624;13.544;2023-08-21T06:01:39;71.06;47.67;86.12;;
18377;Laerm;9315;52.624;13.544;2023-08-21T06:04:06;67.56;49.53;75.63;;
18377;Laerm;9315;52.624;13.544;2023-08-21T06:06:34;66.74;39.27;80.35;;
18377;Laerm;9315;52.624;13.544;2023-08-21T06:09:01;68.44;45.42;76.25;;
18377;Laerm;9315;52.624;13.544;2023-08-21T06:11:28;69.25;45.48;79.93;;
18377;Laerm;9315;52.624;13.544;2023-08-21T06:13:55;69.05;48.67;77.76;;
18377;Laerm;9315;52.624;13.544;2023-08-21T06:16:22;69.30;47.87;80.60;;
18377;Laerm;9315;52.624;13.544;2023-08-21T06:18:50;68.17;41.41;79.77;;
18377;Laerm;9315;52.624;13.544;2023-08-21T06:21:17;68.77;46.10;81.58;;
18377;Laerm;9315;52.624;13.544;2023-08-21T06:23:44;69.01;38.56;81.57;;
18377;Laerm;9315;52.624;13.544;2023-08-21T06:26:11;67.22;44.84;76.08;;
18377;Laerm;9315;52.624;13.544;2023-08-21T06:28:38;69.34;40.32;79.87;;
18377;Laerm;9315;52.624;13.544;2023-08-21T06:31:05;66.80;43.78;80.29;;
18377;Laerm;9315;52.624;13.544;2023-08-21T06:33:35;67.88;41.64;77.83;;
18377;Laerm;9315;52.624;13.544;2023-08-21T06:36:02;66.33;38.11;78.48;;
18377;Laerm;9315;52.624;13.544;2023-08-21T06:38:29;67.40;44.32;78.90;;
18377;Laerm;9315;52.624;13.544;2023-08-21T06:40:57;68.98;52.44;77.47;;
18377;Laerm;9315;52.624;13.544;2023-08-21T06:43:24;68.42;48.32;78.92;;
18377;Laerm;9315;52.624;13.544;2023-08-21T06:45:52;67.83;44.19;76.54;;
18377;Laerm;9315;52.624;13.544;2023-08-21T06:48:19;69.10;44.92;78.14;;
18377;Laerm;9315;52.624;13.544;2023-08-21T06:50:46;67.98;37.82;80.94;;
18377;Laerm;9315;52.624;13.544;2023-08-21T06:53:13;68.17;41.81;79.66;;
18377;Laerm;9315;52.624;13.544;2023-08-21T06:55:40;69.85;39.17;80.85;;
18377;Laerm;9315;52.624;13.544;2023-08-21T06:58:08;68.45;37.49;80.38;;
18377;Laerm;9315;52.624;13.544;2023-08-21T07:00:35;68.46;41.16;80.73;;
18377;Laerm;9315;52.624;13.544;2023-08-21T07:03:02;68.41;45.66;79.11;;
18377;Laerm;9315;52.624;13.544;2023-08-21T07:05:30;67.62;38.52;79.62;;
18377;Laerm;9315;52.624;13.544;2023-08-21T07:07:57;68.78;46.00;83.27;;
18377;Laerm;9315;52.624;13.544;2023-08-21T07:10:24;67.64;41.61;79.91;;
18377;Laerm;9315;52.624;13.544;2023-08-21T07:12:53;67.83;39.02;80.35;;
18377;Laerm;9315;52.624;13.544;2023-08-21T07:15:20;68.32;41.06;79.75;;
18377;Laerm;9315;52.624;13.544;2023-08-21T07:17:47;68.62;43.42;77.73;;
18377;Laerm;9315;52.624;13.544;2023-08-21T07:20:15;69.12;44.62;82.44;;
18377;Laerm;9315;52.624;13.544;2023-08-21T07:22:42;66.91;45.03;75.10;;
18377;Laerm;9315;52.624;13.544;2023-08-21T07:25:09;70.11;43.99;83.41;;
18377;Laerm;9315;52.624;13.544;2023-08-21T07:27:36;68.38;49.78;75.96;;
18377;Laerm;9315;52.624;13.544;2023-08-21T07:30:05;68.36;51.01;76.03;;
18377;Laerm;9315;52.624;13.544;2023-08-21T07:32:33;69.95;49.71;89.93;;
18377;Laerm;9315;52.624;13.544;2023-08-21T07:35:00;68.86;42.01;76.93;;
18377;Laerm;9315;52.624;13.544;2023-08-21T07:37:27;69.18;50.63;77.72;;
18377;Laerm;9315;52.624;13.544;2023-08-21T07:39:54;68.95;46.74;80.66;;
18377;Laerm;9315;52.624;13.544;2023-08-21T07:42:24;69.59;44.36;81.01;;
18377;Laerm;9315;52.624;13.544;2023-08-21T07:44:51;69.62;47.85;83.12;;
18377;Laerm;9315;52.624;13.544;2023-08-21T07:47:19;69.54;47.67;79.57;;
18377;Laerm;9315;52.624;13.544;2023-08-21T07:49:46;69.91;52.02;80.08;;
18377;Laerm;9315;52.624;13.544;2023-08-21T07:52:13;68.18;41.80;76.53;;
18377;Laerm;9315;52.624;13.544;2023-08-21T07:54:40;70.12;49.83;78.98;;
18377;Laerm;9315;52.624;13.544;2023-08-21T07:57:08;67.45;42.77;76.79;;
18377;Laerm;9315;52.624;13.544;2023-08-21T07:59:35;69.54;42.10;79.62;;
18377;Laerm;9315;52.624;13.544;2023-08-21T08:02:03;68.41;42.92;79.53;;
18377;Laerm;9315;52.624;13.544;2023-08-21T08:04:31;66.90;39.83;76.00;;
18377;Laerm;9315;52.624;13.544;2023-08-21T08:06:58;67.62;48.61;79.65;;
18377;Laerm;9315;52.624;13.544;2023-08-21T08:09:25;69.33;47.26;78.71;;
18377;Laerm;9315;52.624;13.544;2023-08-21T08:11:52;69.28;45.98;81.18;;
18377;Laerm;9315;52.624;13.544;2023-08-21T08:14:19;69.21;49.05;81.84;;
18377;Laerm;9315;52.624;13.544;2023-08-21T08:16:47;69.06;42.92;80.05;;
18377;Laerm;9315;52.624;13.544;2023-08-21T08:19:14;68.84;46.40;76.45;;
18377;Laerm;9315;52.624;13.544;2023-08-21T08:21:41;69.93;43.55;80.98;;
18377;Laerm;9315;52.624;13.544;2023-08-21T08:24:08;68.92;46.37;82.10;;
18377;Laerm;9315;52.624;13.544;2023-08-21T08:26:35;70.05;40.32;85.09;;
18377;Laerm;9315;52.624;13.544;2023-08-21T08:29:02;68.92;43.05;79.77;;
18377;Laerm;9315;52.624;13.544;2023-08-21T08:31:30;68.06;43.13;76.29;;
18377;Laerm;9315;52.624;13.544;2023-08-21T08:33:57;68.01;43.86;77.45;;
18377;Laerm;9315;52.624;13.544;2023-08-21T08:36:27;66.73;41.04;79.29;;
18377;Laerm;9315;52.624;13.544;2023-08-21T08:38:54;68.70;42.30;82.25;;
18377;Laerm;9315;52.624;13.544;2023-08-21T08:41:36;68.03;43.81;80.79;;
18377;Laerm;9315;52.624;13.544;2023-08-21T08:44:08;69.89;41.73;80.15;;
18377;Laerm;9315;52.624;13.544;2023-08-21T08:46:35;67.36;39.38;77.98;;
18377;Laerm;9315;52.624;13.544;2023-08-21T08:49:05;69.07;48.19;83.34;;
18377;Laerm;9315;52.624;13.544;2023-08-21T08:51:34;68.48;39.94;85.31;;
18377;Laerm;9315;52.624;13.544;2023-08-21T08:54:02;78.85;44.44;99.54;;
18377;Laerm;9315;52.624;13.544;2023-08-21T08:56:29;68.10;40.54;79.84;;
18377;Laerm;9315;52.624;13.544;2023-08-21T08:58:56;68.80;45.06;77.98;;
18377;Laerm;9315;52.624;13.544;2023-08-21T09:01:23;68.43;44.63;81.01;;
18377;Laerm;9315;52.624;13.544;2023-08-21T09:03:53;68.35;43.42;77.17;;
18377;Laerm;9315;52.624;13.544;2023-08-21T09:06:20;69.79;42.10;78.63;;
18377;Laerm;9315;52.624;13.544;2023-08-21T09:08:57;67.88;40.31;76.81;;
18377;Laerm;9315;52.624;13.544;2023-08-21T09:11:25;79.83;50.89;103.00;;
18377;Laerm;9315;52.624;13.544;2023-08-21T09:13:55;68.02;45.57;78.59;;
18377;Laerm;9315;52.624;13.544;2023-08-21T09:16:24;68.77;43.48;80.51;;
18377;Laerm;9315;52.624;13.544;2023-08-21T09:18:56;71.55;42.49;89.18;;
18377;Laerm;9315;52.624;13.544;2023-08-21T09:21:25;66.85;42.61;75.03;;
18377;Laerm;9315;52.624;13.544;2023-08-21T09:24:00;68.27;43.67;78.38;;
18377;Laerm;9315;52.624;13.544;2023-08-21T09:26:31;68.38;41.36;79.66;;
18377;Laerm;9315;52.624;13.544;2023-08-21T09:29:04;65.97;49.56;76.20;;
18377;Laerm;9315;52.624;13.544;2023-08-21T09:31:33;68.61;48.50;79.77;;
18377;Laerm;9315;52.624;13.544;2023-08-21T09:34:04;69.79;45.31;82.33;;
18377;Laerm;9315;52.624;13.544;2023-08-21T09:36:34;69.05;39.66;81.20;;
18377;Laerm;9315;52.624;13.544;2023-08-21T09:39:03;67.08;39.04;75.46;;
18377;Laerm;9315;52.624;13.544;2023-08-21T09:41:30;67.88;41.18;77.42;;
18377;Laerm;9315;52.624;13.544;2023-08-21T09:44:01;69.17;39.37;76.83;;
18377;Laerm;9315;52.624;13.544;2023-08-21T09:46:30;68.26;42.15;82.51;;
18377;Laerm;9315;52.624;13.544;2023-08-21T09:48:58;69.37;50.52;81.58;;
18377;Laerm;9315;52.624;13.544;2023-08-21T09:51:26;68.36;44.97;78.04;;
18377;Laerm;9315;52.624;13.544;2023-08-21T09:53:54;69.00;42.29;82.48;;
18377;Laerm;9315;52.624;13.544;2023-08-21T09:56:22;66.08;43.01;74.52;;
18377;Laerm;9315;52.624;13.544;2023-08-21T09:58:51;68.97;45.30;86.28;;
18377;Laerm;9315;52.624;13.544;2023-08-21T10:01:21;69.32;46.11;79.81;;
18377;Laerm;9315;52.624;13.544;2023-08-21T10:03:49;69.13;47.53;77.84;;
18377;Laerm;9315;52.624;13.544;2023-08-21T10:06:18;68.72;43.87;78.91;;
18377;Laerm;9315;52.624;13.544;2023-08-21T10:08:54;69.43;45.31;81.88;;
18377;Laerm;9315;52.624;13.544;2023-08-21T10:11:22;66.86;42.02;76.55;;
18377;Laerm;9315;52.624;13.544;2023-08-21T10:13:50;66.36;39.77;75.82;;
18377;Laerm;9315;52.624;13.544;2023-08-21T10:16:19;66.96;42.33;76.41;;
18377;Laerm;9315;52.624;13.544;2023-08-21T10:18:48;66.82;42.70;76.13;;
18377;Laerm;9315;52.624;13.544;2023-08-21T10:21:19;68.18;42.99;81.56;;
18377;Laerm;9315;52.624;13.544;2023-08-21T10:23:54;70.41;47.07;79.80;;
18377;Laerm;9315;52.624;13.544;2023-08-21T10:26:22;67.67;40.34;77.27;;
18377;Laerm;9315;52.624;13.544;2023-08-21T10:29:02;68.39;41.97;79.57;;
18377;Laerm;9315;52.624;13.544;2023-08-21T10:31:42;68.23;47.43;78.59;;
18377;Laerm;9315;52.624;13.544;2023-08-21T10:34:12;77.33;49.40;105.54;;
18377;Laerm;9315;52.624;13.544;2023-08-21T10:39:24;67.47;43.55;79.24;;
18377;Laerm;9315;52.624;13.544;2023-08-21T10:42:09;68.86;52.47;78.94;;
18377;Laerm;9315;52.624;13.544;2023-08-21T10:47:21;65.52;42.33;75.28;;
18377;Laerm;9315;52.624;13.544;2023-08-21T10:50:06;69.46;44.84;80.71;;
18377;Laerm;9315;52.624;13.544;2023-08-21T10:52:43;68.13;46.93;79.15;;
18377;Laerm;9315;52.624;13.544;2023-08-21T10:55:15;68.29;44.67;78.63;;
18377;Laerm;9315;52.624;13.544;2023-08-21T10:57:43;67.78;45.12;77.31;;
18377;Laerm;9315;52.624;13.544;2023-08-21T11:00:17;68.51;45.07;80.36;;
18377;Laerm;9315;52.624;13.544;2023-08-21T11:02:47;68.37;51.13;76.49;;
18377;Laerm;9315;52.624;13.544;2023-08-21T11:05:16;66.65;43.01;76.74;;
18377;Laerm;9315;52.624;13.544;2023-08-21T11:07:46;67.97;45.89;80.27;;
18377;Laerm;9315;52.624;13.544;2023-08-21T11:10:22;69.14;47.49;80.63;;
18377;Laerm;9315;52.624;13.544;2023-08-21T11:12:56;68.40;49.97;76.03;;
18377;Laerm;9315;52.624;13.544;2023-08-21T11:15:29;68.42;46.66;78.21;;
18377;Laerm;9315;52.624;13.544;2023-08-21T11:18:01;68.77;45.25;76.68;;
18377;Laerm;9315;52.624;13.544;2023-08-21T11:20:36;68.41;48.21;76.72;;
18377;Laerm;9315;52.624;13.544;2023-08-21T11:23:06;68.77;45.59;80.86;;
18377;Laerm;9315;52.624;13.544;2023-08-21T11:25:38;68.08;45.27;77.77;;
18377;Laerm;9315;52.624;13.544;2023-08-21T11:28:06;69.43;51.75;78.23;;
18377;Laerm;9315;52.624;13.544;2023-08-21T11:30:33;67.17;48.65;77.20;;
18377;Laerm;9315;52.624;13.544;2023-08-21T11:33:09;66.66;48.62;77.05;;
18377;Laerm;9315;52.624;13.544;2023-08-21T11:35:39;67.64;50.20;78.87;;
18377;Laerm;9315;52.624;13.544;2023-08-21T11:38:14;68.79;49.97;85.19;;
18377;Laerm;9315;52.624;13.544;2023-08-21T11:45:05;69.00;45.88;81.68;;
18377;Laerm;9315;52.624;13.544;2023-08-21T11:47:36;68.52;45.54;81.41;;
18377;Laerm;9315;52.624;13.544;2023-08-21T11:50:07;67.55;43.11;79.98;;
18377;Laerm;9315;52.624;13.544;2023-08-21T11:52:37;68.66;49.28;81.77;;
18377;Laerm;9315;52.624;13.544;2023-08-21T11:55:09;68.12;47.33;76.17;;
18377;Laerm;9315;52.624;13.544;2023-08-21T11:57:51;69.09;47.69;79.70;;
18377;Laerm;9315;52.624;13.544;2023-08-21T12:00:25;70.52;45.00;88.09;;
18377;Laerm;9315;52.624;13.544;2023-08-21T12:03:01;68.68;44.27;79.65;;
18377;Laerm;9315;52.624;13.544;2023-08-21T12:05:30;69.56;43.71;82.29;;
18377;Laerm;9315;52.624;13.544;2023-08-21T12:07:57;69.97;48.96;81.50;;
18377;Laerm;9315;52.624;13.544;2023-08-21T12:10:26;67.46;42.19;76.37;;
18377;Laerm;9315;52.624;13.544;2023-08-21T12:12:55;67.26;42.92;77.80;;
18377;Laerm;9315;52.624;13.544;2023-08-21T12:15:23;67.66;44.81;77.86;;
18377;Laerm;9315;52.624;13.544;2023-08-21T12:17:50;67.80;43.27;77.97;;
18377;Laerm;9315;52.624;13.544;2023-08-21T12:20:18;68.41;41.66;76.82;;
18377;Laerm;9315;52.624;13.544;2023-08-21T12:22:48;67.78;41.22;78.31;;
18377;Laerm;9315;52.624;13.544;2023-08-21T12:25:16;68.08;43.76;75.43;;
18377;Laerm;9315;52.624;13.544;2023-08-21T12:27:43;68.67;46.47;83.93;;
18377;Laerm;9315;52.624;13.544;2023-08-21T12:30:14;68.77;47.61;80.30;;
18377;Laerm;9315;52.624;13.544;2023-08-21T12:32:41;69.82;48.04;82.83;;
18377;Laerm;9315;52.624;13.544;2023-08-21T12:35:08;68.63;42.80;86.80;;
18377;Laerm;9315;52.624;13.544;2023-08-21T12:37:38;68.88;42.58;78.94;;
18377;Laerm;9315;52.624;13.544;2023-08-21T12:40:07;67.84;41.41;80.42;;
18377;Laerm;9315;52.624;13.544;2023-08-21T12:42:35;69.21;50.08;78.66;;
18377;Laerm;9315;52.624;13.544;2023-08-21T12:45:04;69.26;48.17;82.70;;
18377;Laerm;9315;52.624;13.544;2023-08-21T12:47:32;68.87;49.02;76.07;;
18377;Laerm;9315;52.624;13.544;2023-08-21T12:50:00;69.73;48.34;79.06;;
18377;Laerm;9315;52.624;13.544;2023-08-21T12:52:27;68.10;46.29;77.13;;
18377;Laerm;9315;52.624;13.544;2023-08-21T12:54:54;68.66;53.03;77.51;;
18377;Laerm;9315;52.624;13.544;2023-08-21T12:57:21;66.66;42.08;77.97;;
18377;Laerm;9315;52.624;13.544;2023-08-21T12:59:48;68.52;48.27;74.80;;
18377;Laerm;9315;52.624;13.544;2023-08-21T13:02:15;68.45;45.19;76.06;;
18377;Laerm;9315;52.624;13.544;2023-08-21T13:04:44;67.91;44.69;79.23;;
18377;Laerm;9315;52.624;13.544;2023-08-21T13:07:11;68.19;44.12;76.56;;
18377;Laerm;9315;52.624;13.544;2023-08-21T13:09:38;68.97;47.80;83.04;;
18377;Laerm;9315;52.624;13.544;2023-08-21T13:12:06;66.44;51.49;76.69;;
18377;Laerm;9315;52.624;13.544;2023-08-21T13:14:33;68.84;45.74;80.64;;
18377;Laerm;9315;52.624;13.544;2023-08-21T13:17:00;69.84;47.38;86.54;;
18377;Laerm;9315;52.624;13.544;2023-08-21T13:19:27;68.73;44.35;81.18;;
18377;Laerm;9315;52.624;13.544;2023-08-21T13:21:54;71.65;51.63;89.02;;
18377;Laerm;9315;52.624;13.544;2023-08-21T13:24:24;68.61;48.43;82.49;;
18377;Laerm;9315;52.624;13.544;2023-08-21T13:26:52;66.15;42.19;81.52;;
18377;Laerm;9315;52.624;13.544;2023-08-21T13:29:19;67.93;45.66;77.62;;
18377;Laerm;9315;52.624;13.544;2023-08-21T13:31:47;67.56;44.37;76.80;;
18377;Laerm;9315;52.624;13.544;2023-08-21T13:34:17;66.49;42.56;79.65;;
18377;Laerm;9315;52.624;13.544;2023-08-21T13:36:44;67.49;44.08;78.33;;
18377;Laerm;9315;52.624;13.544;2023-08-21T13:39:11;68.37;45.70;80.14;;
18377;Laerm;9315;52.624;13.544;2023-08-21T13:41:42;69.12;49.62;79.12;;
18377;Laerm;9315;52.624;13.544;2023-08-21T13:44:09;68.08;43.31;78.33;;
18377;Laerm;9315;52.624;13.544;2023-08-21T13:46:36;67.74;44.79;77.35;;
18377;Laerm;9315;52.624;13.544;2023-08-21T13:49:03;68.97;41.06;81.37;;
18377;Laerm;9315;52.624;13.544;2023-08-21T13:51:30;67.37;46.67;80.22;;
18377;Laerm;9315;52.624;13.544;2023-08-21T13:53:58;67.38;44.27;77.23;;
18377;Laerm;9315;52.624;13.544;2023-08-21T13:56:25;69.36;44.17;79.36;;
18377;Laerm;9315;52.624;13.544;2023-08-21T13:58:53;68.50;52.70;78.83;;
18377;Laerm;9315;52.624;13.544;2023-08-21T14:01:20;69.44;44.80;81.33;;
18377;Laerm;9315;52.624;13.544;2023-08-21T14:03:47;67.75;48.36;78.16;;